메인 페이지
METAR-TAF:

METAR-TAF

공항 :

라바트, 모로코

위도: 34-03N, 경도: 006-46W, 고도: 84m

현재 날씨관측

예보는 37분 전, 09:00시(UTC)에 발표되었습니다.
남남동3kt동남동풍과 남서풍을 오가는
온도 9°C
습도 87%
기압 1017 hPa
시정: 2000m
고도 1300ft 상공 구름 보통
박무

METAR: GMME 180900Z 16003KT 120V220 2000 BR SCT013 09/07 Q1017 BECMG 5000

시각: 09:37 (09:37 UTC)

예보

예보는 4 시간 37분 전, 05:00시(UTC)에 발표되었습니다.
예보 대상 시간: 18일 06시부터 19일 12시까지 (UTC)
남동4kt
시정: 3000m
고도 1600ft 상공 구름 많음
박무
전환 중
18일 08시부터 18일 10시까지 (UTC)
북북서10kt
시정: 8000m
전환 중
18일 18시부터 18일 20시까지 (UTC)
6kt
고도 1300ft 상공 구름 많음
고도 1500ft 상공 구름 많음
전환 중
19일 08시부터 19일 10시까지 (UTC)
10kt

TAF: GMME 180500Z 1806/1912 14004KT 3000 BR BKN016 BECMG 1808/1810 34010KT 8000 BECMG 1818/1820 18006KT BKN013 BKN015 BECMG 1908/1910 36010KT

4,000개 이상의 공항 관측 자료 및 예보 (METAR 및 TAF 보고).

지도상에서 검색 가능한 기상관측소가 노란 점과 빨간 점으로 표시되어 있습니다.

기상관측소 명을 보려면 표시 위로 마우스를 이동하세요.

날씨 관측과 예보를 보려면 클릭하세요.

지도 변경 : 확대하려면 엑스 표시가 있는 녹색 버튼, 축소하려면 빼기 표시가 있는 녹색 버튼, 다음 페이지의 지도를 보려면 녹색 화살표를 클릭하세요.


METAR-TAF: